IST,Max TemperatureF,Mean TemperatureF,Min TemperatureF,Max Dew PointF,MeanDew PointF,Min DewpointF,Max Humidity, Mean Humidity, Min Humidity, Max Sea Level PressureIn, Mean Sea Level PressureIn, Min Sea Level PressureIn, Max VisibilityMiles, Mean VisibilityMiles, Min VisibilityMiles, Max Wind SpeedMPH, Mean Wind SpeedMPH, Max Gust SpeedMPH,PrecipitationIn, CloudCover, Events, WindDirDegrees
2013-11-1,91,78,65,60,54,45,73,43,19,30.04,29.96,29.86,2,2,1,12,3,,0.00,1,,295
2013-11-2,84,74,65,56,49,42,60,41,14,30.06,29.99,29.90,2,1,1,8,2,,0.00,,,76
2013-11-3,85,71,57,52,44,30,72,39,13,30.12,30.04,29.95,2,1,1,6,1,,0.00,,,85
2013-11-4,88,72,57,48,42,36,55,35,13,30.18,30.08,29.99,2,1,1,6,1,,0.00,,,116
2013-11-5,85,74,63,48,44,37,52,34,12,30.15,30.06,29.96,2,1,1,7,4,17,0.00,1,,103
2013-11-6,85,74,62,51,46,43,52,36,15,30.09,30.01,29.90,2,1,1,9,4,,0.00,3,,105
2013-11-7,77,70,64,57,54,50,68,56,44,30.06,30.00,29.91,2,1,1,16,10,,0.00,3,,72
2013-11-8,77,70,62,60,57,51,90,63,43,30.06,30.00,29.91,2,1,1,9,5,,0.08,5,Rain-Thunderstorm,84
2013-11-9,80,69,58,70,54,45,88,59,32,30.12,30.03,29.95,2,2,1,8,2,,0.00,3,,73
2013-11-10,79,70,61,57,53,48,73,57,29,30.12,30.05,29.98,1,1,1,7,3,,0.00,3,,43
2013-11-11,79,67,55,54,48,41,82,51,22,30.06,29.98,29.87,2,1,1,7,1,,0.00,2,,187
2013-11-12,81,68,54,52,43,34,77,43,15,30.04,29.95,29.88,2,2,1,6,2,,0.00,1,,70
2013-11-13,81,67,53,46,41,30,59,37,12,30.06,29.98,29.89,2,1,1,7,2,,0.00,,,61
2013-11-14,80,66,51,56,38,21,62,37,12,30.09,30.01,29.91,2,1,1,8,2,,0.00,,,73
2013-11-15,80,66,51,47,41,35,67,42,12,30.12,30.04,29.96,2,1,1,7,1,,0.00,,,25
2013-11-16,81,66,51,44,39,34,63,36,12,30.15,30.07,30.00,2,1,1,7,1,,0.00,,,65
2013-11-17,83,68,52,49,40,36,67,40,15,30.18,30.09,29.99,2,1,1,6,1,,0.00,,,111
2013-11-18,84,68,53,45,39,33,59,35,11,30.15,30.08,29.99,2,2,1,7,1,,0.00,,,355
2013-11-19,83,68,52,49,39,29,72,38,7,30.12,30.03,29.93,2,2,1,8,2,,0.00,,,307
2013-11-20,84,68,53,50,40,34,63,36,11,30.04,29.95,29.82,2,2,1,8,2,,0.00,,,290
2013-11-21,86,70,53,46,43,37,67,37,12,29.98,29.91,29.83,2,2,1,6,1,,0.00,1,,240
2013-11-22,86,74,61,48,44,37,55,36,14,30.06,29.99,29.90,2,2,1,8,3,,0.00,,,94
2013-11-23,84,68,53,48,46,42,72,45,19,30.06,30.00,29.88,2,1,1,6,1,,0.00,,,199
2013-11-24,86,70,54,51,46,37,66,44,14,30.09,30.01,29.93,2,1,1,6,1,,0.00,,,167
2013-11-25,86,70,55,49,45,39,72,42,13,30.06,29.98,29.88,2,1,1,7,1,,0.00,,,220
2013-11-26,85,71,57,60,44,37,68,39,14,30.01,29.94,29.85,2,1,1,8,3,,0.00,,,326
2013-11-27,87,71,55,52,45,39,63,41,15,30.06,29.98,29.87,2,1,1,6,1,,0.00,1,,260
2013-11-28,84,70,56,51,45,39,67,40,14,30.15,30.07,29.97,2,2,1,9,2,,0.00,1,,87
2013-11-29,82,68,55,52,43,34,63,38,13,30.15,30.08,29.98,2,2,1,8,2,15,0.00,,,55
2013-11-30,82,68,53,51,43,36,72,42,11,30.12,30.05,29.95,2,1,1,7,1,,0.00,,,300